Time;durP1;ratioP1;P1;durP2;ratioP2;P2;SDS_P1;SDS_P2;PMS_P1;PMS_P2;Temp;Humidity;BMP_temperature;BMP_pressure;BME280_temperature;BME280_humidity;BME280_pressure;Samples;Min_cycle;Max_cycle;Signal;HPM_P1;HPM_P2
2022/07/30 04:02:31;;;;;;;4.47;4.07;;;17.90;99.90;;;;;;4991151;23;20532;-68
2022/07/30 04:04:57;;;;;;;5.33;5.03;;;17.90;99.90;;;;;;4931233;29;20478;-68
2022/07/30 04:07:24;;;;;;;4.50;4.30;;;17.90;99.90;;;;;;4931279;29;20476;-69
2022/07/30 04:09:51;;;;;;;3.83;3.67;;;17.90;99.90;;;;;;4932171;29;20468;-69
2022/07/30 04:12:17;;;;;;;4.47;4.27;;;17.80;99.90;;;;;;4932735;29;20639;-69
2022/07/30 04:14:45;;;;;;;5.33;4.87;;;17.90;99.90;;;;;;4932098;29;20876;-69
2022/07/30 04:17:17;;;;;;;4.80;4.60;;;17.80;99.90;;;;;;4932954;29;20472;-70
2022/07/30 04:19:50;;;;;;;3.97;3.87;;;17.80;99.90;;;;;;4922247;29;20495;-70
2022/07/30 04:22:22;;;;;;;4.30;3.90;;;17.80;99.90;;;;;;4932654;29;20488;-68
2022/07/30 04:24:51;;;;;;;5.90;3.80;;;17.80;99.90;;;;;;4929814;29;20483;-68
2022/07/30 04:27:18;;;;;;;4.10;3.87;;;17.80;99.90;;;;;;4931906;29;20486;-68
2022/07/30 04:29:45;;;;;;;4.33;3.93;;;17.80;99.90;;;;;;4930581;29;20479;-68
2022/07/30 04:32:12;;;;;;;4.00;3.80;;;17.80;99.90;;;;;;4930387;29;20487;-68
2022/07/30 04:34:47;;;;;;;4.93;4.57;;;17.80;99.90;;;;;;4929835;29;20475;-68
2022/07/30 04:37:15;;;;;;;4.37;4.27;;;17.80;99.90;;;;;;4928428;29;20509;-69
2022/07/30 04:39:42;;;;;;;4.57;4.20;;;17.90;99.90;;;;;;4926565;29;20875;-68
2022/07/30 04:42:09;;;;;;;4.00;3.70;;;17.90;99.90;;;;;;4932223;29;20484;-68
2022/07/30 04:44:36;;;;;;;4.20;3.80;;;17.80;99.90;;;;;;4930415;29;20560;-68
2022/07/30 04:47:03;;;;;;;3.80;3.70;;;17.90;99.90;;;;;;4931483;29;20491;-69
2022/07/30 04:49:31;;;;;;;4.17;4.00;;;17.90;99.90;;;;;;4931366;29;20467;-68
2022/07/30 04:52:00;;;;;;;5.00;4.50;;;17.80;99.90;;;;;;4930765;29;20499;-69
2022/07/30 04:54:28;;;;;;;4.30;4.10;;;17.90;99.90;;;;;;4929527;29;20487;-69
2022/07/30 04:56:55;;;;;;;3.77;3.53;;;17.90;99.90;;;;;;4931182;29;20543;-69
2022/07/30 04:59:24;;;;;;;4.17;3.77;;;18.00;99.90;;;;;;4929773;29;20538;-69
2022/07/30 05:01:52;;;;;;;4.07;3.87;;;18.00;99.90;;;;;;4928915;29;21114;-69
2022/07/30 05:04:19;;;;;;;4.07;3.90;;;18.00;99.90;;;;;;4929737;29;20483;-69
2022/07/30 05:06:47;;;;;;;4.57;4.17;;;18.00;99.90;;;;;;4927743;29;20473;-69
2022/07/30 05:09:16;;;;;;;5.17;4.83;;;18.00;99.90;;;;;;4931579;29;20479;-69
2022/07/30 05:11:50;;;;;;;3.60;3.50;;;18.00;99.90;;;;;;4928461;29;20506;-69
2022/07/30 05:14:17;;;;;;;4.40;3.67;;;18.00;99.90;;;;;;4931103;29;20555;-69
2022/07/30 05:16:43;;;;;;;3.60;3.50;;;18.00;99.90;;;;;;4930151;29;20472;-69
2022/07/30 05:19:10;;;;;;;3.97;3.87;;;18.00;99.90;;;;;;4931227;29;20552;-69
2022/07/30 05:21:37;;;;;;;4.87;4.43;;;18.10;99.90;;;;;;4926781;29;21016;-69
2022/07/30 05:24:04;;;;;;;3.70;3.40;;;18.10;99.90;;;;;;4931409;29;20997;-70
2022/07/30 05:26:32;;;;;;;4.17;4.07;;;18.10;99.90;;;;;;4930162;29;20835;-70
2022/07/30 05:28:59;;;;;;;4.10;3.90;;;18.20;99.90;;;;;;4931377;29;20491;-70
2022/07/30 05:31:26;;;;;;;4.00;3.83;;;18.20;99.90;;;;;;4928505;29;21021;-70
2022/07/30 05:33:53;;;;;;;3.63;3.33;;;18.20;99.90;;;;;;4931510;29;20494;-70
2022/07/30 05:36:20;;;;;;;3.73;3.63;;;18.30;99.90;;;;;;4929931;29;20907;-70
2022/07/30 05:38:49;;;;;;;4.30;3.80;;;18.30;99.90;;;;;;4932404;29;20498;-70
2022/07/30 05:41:16;;;;;;;3.93;3.73;;;18.40;99.90;;;;;;4929522;29;20575;-69
2022/07/30 05:43:43;;;;;;;4.23;3.83;;;18.40;99.90;;;;;;4931421;29;20947;-70
2022/07/30 05:46:10;;;;;;;3.83;3.73;;;18.50;99.90;;;;;;4929302;29;20471;-70
2022/07/30 05:48:38;;;;;;;4.97;4.50;;;18.60;99.90;;;;;;4934943;29;20477;-70
2022/07/30 05:51:05;;;;;;;3.63;3.50;;;18.60;99.90;;;;;;4934679;29;20506;-70
2022/07/30 05:53:32;;;;;;;3.90;3.70;;;18.60;99.90;;;;;;4935235;29;20472;-70
2022/07/30 05:55:59;;;;;;;4.37;4.20;;;18.60;99.90;;;;;;4934964;29;20479;-70
2022/07/30 05:58:25;;;;;;;3.93;3.73;;;18.60;99.90;;;;;;4934173;29;20479;-67
2022/07/30 06:00:53;;;;;;;4.10;3.90;;;18.60;99.90;;;;;;4931231;29;20489;-68
2022/07/30 06:03:20;;;;;;;4.00;3.70;;;18.70;99.90;;;;;;4935306;29;20968;-67
2022/07/30 06:05:47;;;;;;;4.50;3.67;;;18.70;99.90;;;;;;4934744;29;20816;-68
2022/07/30 06:08:13;;;;;;;3.87;3.53;;;18.70;99.90;;;;;;4933563;29;21158;-68
2022/07/30 06:10:40;;;;;;;4.37;4.07;;;18.80;99.90;;;;;;4932882;29;20492;-68
2022/07/30 06:13:07;;;;;;;4.87;3.90;;;18.90;99.90;;;;;;4933955;29;20543;-67
2022/07/30 06:15:33;;;;;;;3.57;3.40;;;18.90;99.90;;;;;;4933413;29;21019;-68
2022/07/30 06:18:01;;;;;;;3.63;3.33;;;19.00;99.90;;;;;;4934104;29;20914;-68
2022/07/30 06:20:28;;;;;;;6.00;4.27;;;19.10;99.90;;;;;;4934920;29;20892;-68
2022/07/30 06:22:55;;;;;;;4.40;4.20;;;19.10;99.90;;;;;;4931244;29;20480;-68
2022/07/30 06:25:22;;;;;;;3.63;3.43;;;19.10;99.90;;;;;;4934421;29;20540;-68
2022/07/30 06:27:48;;;;;;;3.77;3.47;;;19.10;99.90;;;;;;4932583;29;20551;-69
2022/07/30 06:30:15;;;;;;;3.67;3.47;;;19.20;99.90;;;;;;4932346;29;20472;-69
2022/07/30 06:32:44;;;;;;;5.97;4.13;;;19.20;99.90;;;;;;4933669;29;20477;-69
2022/07/30 06:35:12;;;;;;;3.50;3.40;;;19.20;99.90;;;;;;4934124;29;20503;-69
2022/07/30 06:37:39;;;;;;;3.60;3.40;;;19.40;99.90;;;;;;4932342;29;20542;-69
2022/07/30 06:40:07;;;;;;;4.63;3.90;;;19.50;99.90;;;;;;4931439;29;20527;-69
2022/07/30 06:42:33;;;;;;;4.27;4.17;;;19.60;99.90;;;;;;4932962;29;20621;-69
2022/07/30 06:45:00;;;;;;;4.40;4.00;;;19.70;99.90;;;;;;4932631;29;20588;-69
2022/07/30 06:47:28;;;;;;;4.77;3.60;;;19.70;99.90;;;;;;4931919;29;20484;-68
2022/07/30 06:49:55;;;;;;;4.17;3.97;;;19.90;99.90;;;;;;4934827;29;20939;-68
2022/07/30 06:52:23;;;;;;;5.40;3.60;;;20.00;99.90;;;;;;4933567;29;20498;-67
2022/07/30 06:54:50;;;;;;;3.67;3.47;;;20.20;99.90;;;;;;4930097;29;20581;-68
2022/07/30 06:57:16;;;;;;;3.90;3.70;;;20.20;99.90;;;;;;4933665;29;20467;-68
2022/07/30 06:59:43;;;;;;;4.13;3.83;;;20.30;99.90;;;;;;4928626;29;20538;-68
2022/07/30 07:02:10;;;;;;;3.37;3.27;;;20.40;99.90;;;;;;4932413;29;20525;-68
2022/07/30 07:04:37;;;;;;;5.70;4.20;;;20.50;99.90;;;;;;4933778;29;20625;-68
2022/07/30 07:07:03;;;;;;;3.37;3.27;;;20.60;99.90;;;;;;4932431;29;20471;-68
2022/07/30 07:09:31;;;;;;;3.57;3.30;;;20.70;99.90;;;;;;4933935;29;20847;-68
2022/07/30 07:11:58;;;;;;;3.90;3.80;;;20.90;99.90;;;;;;4934107;29;20496;-68
2022/07/30 07:14:25;;;;;;;3.73;3.40;;;21.00;99.90;;;;;;4932125;29;21500;-69
2022/07/30 07:16:52;;;;;;;3.27;3.17;;;21.30;99.90;;;;;;4934822;29;20465;-67
2022/07/30 07:19:19;;;;;;;3.47;3.17;;;21.70;99.90;;;;;;4932602;29;20835;-69
2022/07/30 07:21:45;;;;;;;3.60;3.50;;;22.10;99.90;;;;;;4933876;29;20486;-68
2022/07/30 07:24:12;;;;;;;3.70;3.57;;;22.40;99.90;;;;;;4932517;29;20474;-68
2022/07/30 07:26:40;;;;;;;4.23;3.90;;;22.40;99.90;;;;;;4934425;29;20516;-68
2022/07/30 07:29:07;;;;;;;3.80;3.70;;;22.40;99.90;;;;;;4929104;29;20534;-67
2022/07/30 07:31:33;;;;;;;3.50;3.40;;;22.40;99.90;;;;;;4929953;29;20522;-68
2022/07/30 07:34:00;;;;;;;3.70;3.50;;;22.30;99.90;;;;;;4932187;29;20469;-68
2022/07/30 07:36:27;;;;;;;3.10;3.10;;;22.30;99.90;;;;;;4932963;29;20990;-68
2022/07/30 07:38:54;;;;;;;4.37;3.97;;;22.30;99.90;;;;;;4933288;29;20512;-73
2022/07/30 07:41:20;;;;;;;5.13;4.73;;;22.30;99.90;;;;;;4925520;29;20500;-68
2022/07/30 07:43:48;;;;;;;4.33;4.03;;;22.30;99.90;;;;;;4930762;29;20473;-68
2022/07/30 07:46:16;;;;;;;4.33;4.13;;;22.20;99.90;;;;;;4931049;29;20500;-68
2022/07/30 07:48:43;;;;;;;4.00;3.83;;;22.20;99.90;;;;;;4934114;29;20840;-68
2022/07/30 07:51:10;;;;;;;4.67;4.33;;;22.10;99.90;;;;;;4933363;29;20507;-69
2022/07/30 07:53:36;;;;;;;4.60;4.30;;;22.10;99.90;;;;;;4933671;29;20886;-68
2022/07/30 07:56:03;;;;;;;4.00;3.80;;;22.00;99.90;;;;;;4933545;29;20460;-68
2022/07/30 07:58:30;;;;;;;4.90;4.70;;;22.00;99.90;;;;;;4932500;29;20560;-68
2022/07/30 08:00:58;;;;;;;4.82;4.43;;;21.90;99.90;;;;;;4930453;29;20464;-68
2022/07/30 08:03:24;;;;;;;4.57;4.20;;;21.90;99.90;;;;;;4932363;29;20224;-68
2022/07/30 08:05:51;;;;;;;4.60;4.40;;;22.00;99.90;;;;;;4931651;29;20579;-68
2022/07/30 08:08:18;;;;;;;4.70;4.40;;;22.10;99.90;;;;;;4933414;29;20471;-68
2022/07/30 08:10:44;;;;;;;4.63;4.33;;;22.40;99.90;;;;;;4931532;29;20495;-67
2022/07/30 08:13:11;;;;;;;5.10;4.77;;;22.60;99.90;;;;;;4931178;29;20480;-68
2022/07/30 08:15:38;;;;;;;4.40;4.13;;;22.70;99.90;;;;;;4931933;29;21045;-68
2022/07/30 08:18:06;;;;;;;4.23;4.03;;;22.80;99.90;;;;;;4931946;29;20484;-67
2022/07/30 08:20:34;;;;;;;4.53;4.33;;;23.00;99.90;;;;;;4931805;29;20506;-68
2022/07/30 08:23:01;;;;;;;5.23;4.83;;;23.10;99.90;;;;;;4926154;29;20473;-68
2022/07/30 08:25:27;;;;;;;5.20;4.90;;;23.30;99.90;;;;;;4930907;29;20481;-68
2022/07/30 08:27:54;;;;;;;4.43;4.23;;;23.60;99.90;;;;;;4931515;29;20481;-68
2022/07/30 08:30:21;;;;;;;5.13;4.87;;;23.70;99.90;;;;;;4931922;29;20461;-68
2022/07/30 08:32:48;;;;;;;4.10;3.80;;;23.90;99.90;;;;;;4929096;29;20480;-67
2022/07/30 08:35:16;;;;;;;4.10;4.00;;;24.10;99.90;;;;;;4929774;29;21026;-68
2022/07/30 08:37:43;;;;;;;4.20;3.93;;;24.20;99.90;;;;;;4932200;29;20556;-68
2022/07/30 08:40:11;;;;;;;4.50;4.17;;;24.30;99.90;;;;;;4932117;29;20525;-68
2022/07/30 08:42:38;;;;;;;4.00;3.80;;;24.30;99.90;;;;;;4932221;29;20498;-68
2022/07/30 08:45:07;;;;;;;4.10;4.00;;;24.30;99.90;;;;;;4932178;29;20475;-68
2022/07/30 08:47:36;;;;;;;4.50;4.30;;;24.10;99.90;;;;;;4932462;29;20532;-68
2022/07/30 08:50:04;;;;;;;4.23;3.53;;;24.10;99.90;;;;;;4931031;29;20532;-69
2022/07/30 08:52:32;;;;;;;3.90;3.70;;;24.20;99.90;;;;;;4925322;29;20557;-68
2022/07/30 08:55:00;;;;;;;4.67;4.10;;;24.20;99.90;;;;;;4932532;29;20462;-69
2022/07/30 08:57:28;;;;;;;4.30;3.97;;;24.10;99.90;;;;;;4932250;29;20568;-68
2022/07/30 08:59:56;;;;;;;4.00;3.80;;;24.10;99.90;;;;;;4928061;29;20490;-69
2022/07/30 09:02:22;;;;;;;3.97;3.73;;;24.10;99.90;;;;;;4929571;29;20505;-67
2022/07/30 09:04:49;;;;;;;3.80;3.47;;;24.30;99.90;;;;;;4927561;29;20471;-69
2022/07/30 09:07:16;;;;;;;4.10;3.90;;;24.50;99.90;;;;;;4931338;29;20565;-69
2022/07/30 09:09:44;;;;;;;5.23;3.93;;;24.60;99.90;;;;;;4932148;29;20513;-69
2022/07/30 09:12:33;;;;;;;3.90;3.60;;;24.70;99.90;;;;;;4930957;29;21065;-68
2022/07/30 09:15:05;;;;;;;3.63;3.53;;;24.90;99.90;;;;;;4932102;29;20549;-68
2022/07/30 09:17:55;;;;;;;4.00;3.90;;;25.00;99.90;;;;;;4931651;29;20474;-68
2022/07/30 09:20:23;;;;;;;4.33;4.10;;;25.00;99.90;;;;;;4929025;29;20490;-69
2022/07/30 09:22:52;;;;;;;4.67;4.30;;;25.00;99.90;;;;;;4925684;29;20536;-68
2022/07/30 09:25:37;;;;;;;4.37;4.10;;;24.90;99.90;;;;;;4933390;29;20474;-68
2022/07/30 09:28:05;;;;;;;4.10;3.90;;;24.90;99.90;;;;;;4935127;29;20525;-68
2022/07/30 09:30:45;;;;;;;3.87;3.70;;;24.90;99.90;;;;;;4933704;29;20466;-68
2022/07/30 09:33:12;;;;;;;3.87;3.77;;;24.80;99.90;;;;;;4932079;29;20465;-67
2022/07/30 09:35:40;;;;;;;4.00;3.80;;;24.60;99.90;;;;;;4935076;29;20466;-68
2022/07/30 09:38:07;;;;;;;4.00;3.73;;;24.60;99.90;;;;;;4933852;29;20835;-68
2022/07/30 09:40:35;;;;;;;4.27;4.07;;;24.60;99.90;;;;;;4935918;29;20998;-68
2022/07/30 09:43:07;;;;;;;6.90;4.30;;;24.50;99.90;;;;;;4934201;29;20540;-68
2022/07/30 09:45:34;;;;;;;4.00;3.90;;;24.40;99.90;;;;;;4935173;29;20940;-68
2022/07/30 09:48:02;;;;;;;4.10;3.87;;;24.50;99.90;;;;;;4932207;29;20541;-67
2022/07/30 09:50:28;;;;;;;5.10;4.63;;;24.50;99.90;;;;;;4930887;29;20476;-68
2022/07/30 09:53:05;;;;;;;4.70;4.50;;;24.50;99.90;;;;;;4929599;29;20834;-68
2022/07/30 09:55:34;;;;;;;5.00;4.70;;;24.50;99.90;;;;;;4931616;29;21065;-68
2022/07/30 09:58:05;;;;;;;4.20;4.10;;;24.50;99.90;;;;;;4934334;29;20553;-68
2022/07/30 10:00:33;;;;;;;5.20;4.87;;;24.60;99.90;;;;;;4935914;29;20589;-68
2022/07/30 10:03:01;;;;;;;4.50;4.30;;;24.70;99.90;;;;;;4930366;29;20473;-68
2022/07/30 10:05:28;;;;;;;4.47;4.17;;;24.90;99.90;;;;;;4933687;29;20557;-68
2022/07/30 10:07:57;;;;;;;4.23;4.00;;;25.00;99.90;;;;;;4934775;29;20573;-68
2022/07/30 10:10:25;;;;;;;4.77;4.40;;;25.20;99.90;;;;;;4932269;29;20834;-68
2022/07/30 10:12:54;;;;;;;4.20;4.10;;;25.30;99.90;;;;;;4930202;29;20477;-68
2022/07/30 10:15:25;;;;;;;4.20;4.00;;;25.30;99.90;;;;;;4935262;29;20458;-68
2022/07/30 10:17:52;;;;;;;4.93;4.53;;;25.30;99.90;;;;;;4941380;23;20510;-73
2022/07/30 10:20:19;;;;;;;4.90;4.57;;;25.30;99.90;;;;;;4911818;29;20490;-71
2022/07/30 10:22:46;;;;;;;4.23;4.13;;;25.30;99.90;;;;;;4910379;29;20472;-70
2022/07/30 10:25:17;;;;;;;4.87;4.47;;;25.30;99.90;;;;;;4910587;29;20886;-73
2022/07/30 10:27:44;;;;;;;4.70;4.40;;;25.20;99.90;;;;;;4900401;29;20498;-72
2022/07/30 10:30:12;;;;;;;4.90;4.53;;;25.10;99.90;;;;;;4893637;29;20476;-73
2022/07/30 10:32:40;;;;;;;4.87;4.30;;;25.00;99.90;;;;;;4894930;29;20487;-73
2022/07/30 10:35:09;;;;;;;4.13;3.97;;;25.00;99.90;;;;;;4895689;29;20471;-73
2022/07/30 10:37:37;;;;;;;4.40;4.00;;;24.90;99.90;;;;;;4895977;29;20498;-72
2022/07/30 10:40:12;;;;;;;4.20;4.10;;;24.70;99.90;;;;;;4897405;29;20539;-73
2022/07/30 10:43:05;;;;;;;3.80;3.70;;;24.70;99.90;;;;;;4896628;29;20841;-73
2022/07/30 10:45:43;;;;;;;4.30;4.00;;;24.70;99.90;;;;;;4890632;29;20579;-73
2022/07/30 10:48:11;;;;;;;5.20;4.93;;;24.60;99.90;;;;;;4896926;29;20562;-72
2022/07/30 10:50:50;;;;;;;4.43;4.13;;;24.50;99.90;;;;;;4896398;29;20476;-73
2022/07/30 10:53:33;;;;;;;4.50;4.30;;;24.70;99.90;;;;;;4897557;29;20575;-73
2022/07/30 10:56:17;;;;;;;4.27;4.07;;;24.70;99.90;;;;;;4893276;29;21113;-73
2022/07/30 10:59:01;;;;;;;4.50;4.20;;;25.00;99.90;;;;;;4891473;29;20483;-72
2022/07/30 11:02:01;;;;;;;4.37;4.27;;;25.10;99.90;;;;;;4895548;29;20594;-74
2022/07/30 11:04:29;;;;;;;6.93;4.87;;;25.20;99.90;;;;;;4894716;29;20479;-74
2022/07/30 11:07:30;;;;;;;5.00;4.80;;;25.00;99.90;;;;;;4896236;29;20499;-73
2022/07/30 11:10:00;;;;;;;4.50;4.27;;;25.10;99.90;;;;;;4894279;29;20560;-73
2022/07/30 11:12:53;;;;;;;4.50;4.30;;;25.20;99.90;;;;;;4896657;29;20524;-74
2022/07/30 11:15:21;;;;;;;4.37;4.23;;;25.10;99.90;;;;;;4893653;29;20949;-73
2022/07/30 11:18:07;;;;;;;4.00;3.90;;;25.20;99.90;;;;;;4897938;29;20503;-74
2022/07/30 11:20:35;;;;;;;4.20;4.00;;;25.20;99.90;;;;;;4887431;29;20508;-73
2022/07/30 11:23:36;;;;;;;4.20;4.00;;;25.20;99.90;;;;;;4894518;29;20866;-73
2022/07/30 11:26:03;;;;;;;4.00;3.90;;;25.20;99.90;;;;;;4891541;29;20509;-74
2022/07/30 11:28:41;;;;;;;3.83;3.83;;;25.20;99.90;;;;;;4895571;29;20847;-74
2022/07/30 11:31:30;;;;;;;4.40;4.20;;;25.40;99.90;;;;;;4896252;29;20475;-73
2022/07/30 11:34:25;;;;;;;4.57;4.37;;;25.50;99.90;;;;;;4891576;29;20615;-74
2022/07/30 11:37:11;;;;;;;4.27;4.10;;;25.70;99.90;;;;;;4894378;29;20495;-73
2022/07/30 11:40:09;;;;;;;4.50;4.30;;;25.80;99.90;;;;;;4895714;29;20984;-73
2022/07/30 11:42:37;;;;;;;4.40;4.20;;;25.80;99.90;;;;;;4895215;29;20495;-73
2022/07/30 11:45:25;;;;;;;4.60;4.43;;;25.90;99.90;;;;;;4893739;29;20824;-71
2022/07/30 11:47:53;;;;;;;5.00;4.60;;;25.90;99.90;;;;;;4889529;29;20575;-72
2022/07/30 11:50:22;;;;;;;5.00;4.70;;;25.70;99.90;;;;;;4893493;29;20595;-73
2022/07/30 11:52:50;;;;;;;4.47;4.27;;;25.70;99.90;;;;;;4895362;29;20472;-73
2022/07/30 11:55:25;;;;;;;5.17;4.97;;;25.80;99.90;;;;;;4894195;29;20495;-73
2022/07/30 11:57:52;;;;;;;8.17;5.87;;;25.80;99.90;;;;;;4896130;29;20615;-72
2022/07/30 12:00:19;;;;;;;5.50;4.37;;;25.80;99.90;;;;;;4894868;29;20515;-74
2022/07/30 12:02:47;;;;;;;5.10;4.80;;;26.00;99.90;;;;;;4893193;29;20848;-73
2022/07/30 12:05:14;;;;;;;4.90;4.70;;;26.00;99.90;;;;;;4894350;29;21021;-72
2022/07/30 12:07:41;;;;;;;4.40;4.00;;;26.20;99.90;;;;;;4895725;29;20503;-72
2022/07/30 12:10:15;;;;;;;5.90;4.73;;;26.20;99.90;;;;;;4896040;29;20841;-72
2022/07/30 12:12:43;;;;;;;4.63;4.43;;;26.30;99.90;;;;;;4888211;29;20472;-74
2022/07/30 12:15:11;;;;;;;4.40;4.10;;;26.40;99.90;;;;;;4895871;29;20480;-72
2022/07/30 12:17:42;;;;;;;5.30;5.00;;;26.60;99.90;;;;;;4896598;29;20503;-73
2022/07/30 12:20:15;;;;;;;4.20;4.10;;;26.60;99.90;;;;;;4894923;29;20483;-73
2022/07/30 12:22:43;;;;;;;3.97;3.77;;;26.60;99.90;;;;;;4888353;29;20575;-72
2022/07/30 12:25:11;;;;;;;4.20;4.00;;;26.70;99.90;;;;;;4895907;29;20546;-72
2022/07/30 12:27:38;;;;;;;3.83;3.73;;;26.90;99.90;;;;;;4895991;29;20873;-72
2022/07/30 12:30:08;;;;;;;5.70;4.73;;;27.00;99.90;;;;;;4895787;29;20838;-72
2022/07/30 12:32:36;;;;;;;4.07;3.80;;;27.20;99.90;;;;;;4896315;29;20883;-72
2022/07/30 12:35:02;;;;;;;4.27;4.07;;;27.30;99.90;;;;;;4894866;29;20488;-71
2022/07/30 12:37:29;;;;;;;3.90;3.80;;;27.30;99.90;;;;;;4896104;29;20524;-74
2022/07/30 12:40:10;;;;;;;4.70;4.27;;;27.40;99.90;;;;;;4895386;29;20507;-73
2022/07/30 12:42:38;;;;;;;4.53;4.10;;;27.50;99.90;;;;;;4896068;29;20527;-72
2022/07/30 12:45:25;;;;;;;5.80;4.40;;;27.40;99.90;;;;;;4895467;29;20472;-72
2022/07/30 12:47:51;;;;;;;4.40;4.10;;;27.30;99.90;;;;;;4895634;29;20491;-72
2022/07/30 12:50:18;;;;;;;4.53;4.23;;;27.20;99.90;;;;;;4894870;29;20531;-72
2022/07/30 12:52:49;;;;;;;5.13;4.47;;;27.20;99.90;;;;;;4895877;29;20575;-72
2022/07/30 12:55:16;;;;;;;4.10;4.00;;;27.30;99.90;;;;;;4896082;29;20562;-72
2022/07/30 12:57:57;;;;;;;4.93;4.70;;;27.20;99.90;;;;;;4894879;29;21120;-73
2022/07/30 13:00:27;;;;;;;6.43;4.10;;;27.00;99.90;;;;;;4895424;29;20475;-73
2022/07/30 13:02:54;;;;;;;5.37;5.07;;;26.80;99.90;;;;;;4899076;29;20494;-71
2022/07/30 13:05:41;;;;;;;4.10;4.00;;;26.70;99.90;;;;;;4900067;29;20467;-72
2022/07/30 13:08:08;;;;;;;3.97;3.87;;;26.60;99.90;;;;;;4900467;29;20500;-71
2022/07/30 13:10:34;;;;;;;4.87;4.43;;;26.70;99.90;;;;;;4904957;29;20536;-73
2022/07/30 13:13:02;;;;;;;4.57;4.37;;;26.90;99.90;;;;;;4898947;29;20476;-72
2022/07/30 13:15:30;;;;;;;4.10;4.00;;;26.90;99.90;;;;;;4895138;29;20475;-72
2022/07/30 13:17:56;;;;;;;4.70;4.50;;;26.90;99.90;;;;;;4894588;29;20587;-72
2022/07/30 13:20:23;;;;;;;4.50;4.40;;;26.80;99.90;;;;;;4892822;29;21065;-73
2022/07/30 13:22:50;;;;;;;4.97;4.67;;;26.80;99.90;;;;;;4895180;29;20582;-72
2022/07/30 13:25:16;;;;;;;4.87;4.67;;;26.70;99.90;;;;;;4894655;29;20467;-72
2022/07/30 13:27:43;;;;;;;4.30;4.20;;;26.70;99.90;;;;;;4894131;29;20496;-72
2022/07/30 13:30:11;;;;;;;4.43;4.23;;;26.80;99.90;;;;;;4894092;29;20539;-72
2022/07/30 13:32:39;;;;;;;5.20;4.90;;;26.70;99.90;;;;;;4893288;29;20614;-72
2022/07/30 13:35:06;;;;;;;4.17;3.97;;;26.70;99.90;;;;;;4892539;29;20483;-72
2022/07/30 13:37:33;;;;;;;4.60;4.43;;;26.80;99.90;;;;;;4892813;29;20491;-70
2022/07/30 13:39:59;;;;;;;4.37;4.27;;;26.80;99.90;;;;;;4894116;29;20476;-72
2022/07/30 13:42:26;;;;;;;3.97;3.87;;;26.90;99.90;;;;;;4893455;29;20555;-72
2022/07/30 13:44:53;;;;;;;4.30;4.10;;;26.90;99.90;;;;;;4895868;29;20559;-72
2022/07/30 13:47:20;;;;;;;4.47;4.20;;;26.90;99.90;;;;;;4893900;29;20575;-72
2022/07/30 13:49:49;;;;;;;4.90;4.60;;;26.90;99.90;;;;;;4893845;29;20543;-72
2022/07/30 13:52:16;;;;;;;5.07;4.77;;;26.90;99.90;;;;;;4893318;29;20551;-72
2022/07/30 13:54:43;;;;;;;4.53;4.43;;;27.00;99.90;;;;;;4894486;29;20472;-72
2022/07/30 13:57:10;;;;;;;3.87;3.57;;;27.10;99.90;;;;;;4895232;29;20571;-73
2022/07/30 13:59:36;;;;;;;4.20;4.10;;;27.20;99.90;;;;;;4894541;29;20467;-72
2022/07/30 14:02:03;;;;;;;5.00;4.80;;;27.20;99.90;;;;;;4888598;29;20495;-70
2022/07/30 14:04:30;;;;;;;5.10;4.77;;;27.10;99.90;;;;;;4894689;29;20862;-73
2022/07/30 14:06:58;;;;;;;4.20;4.10;;;27.10;99.90;;;;;;4894798;29;20523;-72
2022/07/30 14:09:25;;;;;;;4.53;4.30;;;27.10;99.90;;;;;;4895128;29;20519;-71
2022/07/30 14:11:52;;;;;;;3.77;3.77;;;27.20;99.90;;;;;;4898405;29;20468;-72
2022/07/30 14:14:19;;;;;;;4.10;4.00;;;27.10;99.90;;;;;;4898646;29;20480;-72
2022/07/30 14:16:49;;;;;;;4.63;4.37;;;27.10;99.90;;;;;;4898067;29;20507;-72
2022/07/30 14:19:16;;;;;;;4.40;4.20;;;27.20;99.90;;;;;;4892580;29;20478;-73
2022/07/30 14:21:42;;;;;;;5.60;4.70;;;27.20;99.90;;;;;;4894763;29;20492;-75
2022/07/30 14:24:10;;;;;;;4.60;4.30;;;27.30;99.90;;;;;;4897456;29;20476;-73
2022/07/30 14:26:37;;;;;;;4.73;4.43;;;27.30;99.90;;;;;;4895811;29;20582;-72
2022/07/30 14:29:04;;;;;;;4.23;3.90;;;27.30;99.90;;;;;;4896999;29;20480;-75
2022/07/30 14:31:31;;;;;;;5.17;4.93;;;27.30;99.90;;;;;;4895093;29;20480;-74
2022/07/30 14:33:58;;;;;;;4.90;4.70;;;27.30;99.90;;;;;;4898737;29;20825;-75
2022/07/30 14:36:27;;;;;;;4.50;4.30;;;27.30;99.90;;;;;;4895310;29;20499;-74
2022/07/30 14:38:53;;;;;;;4.70;4.50;;;27.30;99.90;;;;;;4895574;29;20476;-73
2022/07/30 14:41:21;;;;;;;4.20;3.90;;;27.30;99.90;;;;;;4895509;29;20480;-73
2022/07/30 14:43:48;;;;;;;4.17;3.87;;;27.40;99.90;;;;;;4897241;29;20536;-73
2022/07/30 14:46:15;;;;;;;5.10;4.70;;;27.50;99.90;;;;;;4896356;29;20793;-73
2022/07/30 14:48:42;;;;;;;4.27;4.07;;;27.50;99.90;;;;;;4897174;29;20523;-73
2022/07/30 14:51:09;;;;;;;4.27;3.93;;;27.50;99.90;;;;;;4895215;29;20476;-74
2022/07/30 14:53:35;;;;;;;3.77;3.67;;;27.50;99.90;;;;;;4895328;29;20479;-73
2022/07/30 14:56:02;;;;;;;4.37;4.17;;;27.50;99.90;;;;;;4897338;29;20483;-73
2022/07/30 14:58:30;;;;;;;4.50;4.23;;;27.50;99.90;;;;;;4899810;29;20594;-74
2022/07/30 15:00:57;;;;;;;4.10;4.00;;;27.40;99.90;;;;;;4896409;29;20472;-73
2022/07/30 15:03:23;;;;;;;3.80;3.70;;;27.30;99.90;;;;;;4896538;29;20492;-73
2022/07/30 15:05:50;;;;;;;4.50;4.40;;;27.40;99.90;;;;;;4896983;29;20540;-73
2022/07/30 15:08:17;;;;;;;4.43;4.33;;;27.50;99.90;;;;;;4895271;29;20492;-73
2022/07/30 15:10:44;;;;;;;4.93;4.73;;;27.60;99.90;;;;;;4897621;29;20510;-74
2022/07/30 15:13:10;;;;;;;4.80;4.60;;;27.70;99.90;;;;;;4896008;29;20472;-74
2022/07/30 15:15:38;;;;;;;4.83;4.63;;;27.70;99.90;;;;;;4895550;29;20475;-73
2022/07/30 15:18:05;;;;;;;4.50;4.30;;;27.70;99.90;;;;;;4896581;29;20492;-74
2022/07/30 15:20:32;;;;;;;4.40;4.30;;;27.70;99.90;;;;;;4892922;29;20480;-74
2022/07/30 15:22:58;;;;;;;4.53;4.40;;;27.70;99.90;;;;;;4891006;29;20534;-73
2022/07/30 15:25:25;;;;;;;4.10;4.00;;;27.80;99.90;;;;;;4893327;29;20476;-72
2022/07/30 15:27:52;;;;;;;5.73;5.40;;;27.90;99.90;;;;;;4895700;29;20498;-72
2022/07/30 15:30:19;;;;;;;5.07;4.67;;;27.90;99.90;;;;;;4895153;29;20483;-73
2022/07/30 15:32:47;;;;;;;4.27;4.07;;;28.00;99.90;;;;;;4896058;29;20471;-72
2022/07/30 15:35:14;;;;;;;4.70;4.50;;;28.00;99.90;;;;;;4893481;29;20476;-73
2022/07/30 15:37:41;;;;;;;4.47;4.30;;;28.10;99.90;;;;;;4896721;29;20488;-72
2022/07/30 15:40:08;;;;;;;4.40;4.10;;;28.00;99.90;;;;;;4895035;29;20472;-71
2022/07/30 15:42:35;;;;;;;4.53;4.17;;;27.90;99.70;;;;;;4896463;29;20491;-70
2022/07/30 15:45:03;;;;;;;5.10;4.80;;;27.80;99.90;;;;;;4894301;29;20528;-71
2022/07/30 15:47:30;;;;;;;5.37;5.17;;;27.80;99.90;;;;;;4895031;29;20496;-71
2022/07/30 15:49:58;;;;;;;6.40;6.00;;;28.00;99.60;;;;;;4895307;29;20599;-71
2022/07/30 15:52:25;;;;;;;5.00;4.70;;;28.00;99.50;;;;;;4895147;29;20472;-72
2022/07/30 15:54:51;;;;;;;4.33;4.13;;;28.10;99.00;;;;;;4895002;29;20475;-71
2022/07/30 15:57:18;;;;;;;4.83;4.63;;;27.90;99.20;;;;;;4896525;29;20484;-72
2022/07/30 15:59:45;;;;;;;5.30;4.80;;;27.80;99.40;;;;;;4890181;29;20479;-73
2022/07/30 16:02:12;;;;;;;4.80;4.40;;;27.60;99.40;;;;;;4896217;29;20797;-72
2022/07/30 16:04:38;;;;;;;6.73;3.77;;;27.50;98.80;;;;;;4890852;29;20964;-72
2022/07/30 16:07:06;;;;;;;3.80;3.80;;;27.30;97.80;;;;;;4894457;29;20507;-72
2022/07/30 16:09:33;;;;;;;4.67;4.47;;;27.10;98.10;;;;;;4893841;29;20642;-71
2022/07/30 16:12:00;;;;;;;4.00;3.90;;;26.90;98.10;;;;;;4894968;29;20976;-72
2022/07/30 16:14:27;;;;;;;4.17;3.97;;;26.90;98.50;;;;;;4894916;29;20472;-72
2022/07/30 16:16:54;;;;;;;3.90;3.80;;;26.70;98.70;;;;;;4887257;29;20504;-72
2022/07/30 16:19:21;;;;;;;3.90;3.70;;;26.60;98.90;;;;;;4891685;29;21000;-72
2022/07/30 16:21:47;;;;;;;4.20;3.97;;;26.40;99.50;;;;;;4896346;29;20467;-74
2022/07/30 16:24:15;;;;;;;4.27;3.97;;;26.30;99.80;;;;;;4894800;29;20939;-72
2022/07/30 16:26:42;;;;;;;5.20;4.07;;;26.30;99.90;;;;;;4887043;29;20491;-72
2022/07/30 16:29:09;;;;;;;6.07;5.53;;;26.10;99.90;;;;;;4893689;29;20836;-73
2022/07/30 16:31:37;;;;;;;5.20;5.00;;;26.00;99.90;;;;;;4893895;29;20570;-72
2022/07/30 16:34:04;;;;;;;12.60;5.70;;;25.80;99.90;;;;;;4892695;29;20947;-72
2022/07/30 16:36:31;;;;;;;4.93;4.80;;;25.60;99.90;;;;;;4893915;29;20595;-72
2022/07/30 16:38:57;;;;;;;5.83;5.63;;;25.50;99.90;;;;;;4894899;29;20809;-74
2022/07/30 16:41:25;;;;;;;6.60;6.20;;;25.20;99.90;;;;;;4893549;29;20538;-73
2022/07/30 16:43:52;;;;;;;5.33;5.07;;;25.00;99.90;;;;;;4893838;29;21017;-74
2022/07/30 16:46:19;;;;;;;5.33;5.07;;;24.80;99.90;;;;;;4894971;29;21854;-72
2022/07/30 16:48:45;;;;;;;6.27;5.93;;;24.60;99.90;;;;;;4918981;23;20482;-66
2022/07/30 16:51:12;;;;;;;6.47;5.83;;;24.50;99.90;;;;;;4926183;29;20479;-67
2022/07/30 16:53:39;;;;;;;6.37;5.97;;;24.30;99.90;;;;;;4927607;29;20775;-68
2022/07/30 16:56:06;;;;;;;5.70;5.40;;;24.30;99.90;;;;;;4932537;29;20459;-67
2022/07/30 16:58:34;;;;;;;7.47;6.87;;;24.30;99.90;;;;;;4928028;29;20838;-67